Time;durP1;ratioP1;P1;durP2;ratioP2;P2;SDS_P1;SDS_P2;PMS_P1;PMS_P2;Temp;Humidity;BMP_temperature;BMP_pressure;BME280_temperature;BME280_humidity;BME280_pressure;Samples;Min_cycle;Max_cycle;Signal;HPM_P1;HPM_P2
2021/12/18 00:00:46;;;;;;;2.30;1.75;;;10.20;50.20;;;;;;5055390;28;20525;-49
2021/12/18 00:03:13;;;;;;;3.05;2.22;;;10.20;50.40;;;;;;5055840;28;20220;-50
2021/12/18 00:05:41;;;;;;;6.47;4.07;;;10.20;50.30;;;;;;5055740;28;20165;-50
2021/12/18 00:08:10;;;;;;;5.20;2.72;;;10.20;50.20;;;;;;5055639;28;20165;-49
2021/12/18 00:10:38;;;;;;;3.30;2.40;;;10.20;50.30;;;;;;5054553;28;20479;-49
2021/12/18 00:13:06;;;;;;;4.60;2.75;;;10.20;50.30;;;;;;5055395;28;20590;-50
2021/12/18 00:15:33;;;;;;;3.58;2.63;;;10.20;50.20;;;;;;5055707;28;20165;-50
2021/12/18 00:18:01;;;;;;;1.85;1.40;;;10.20;50.30;;;;;;5055216;28;20173;-50
2021/12/18 00:20:29;;;;;;;3.67;1.73;;;10.10;50.40;;;;;;5055327;28;20196;-49
2021/12/18 00:22:56;;;;;;;4.50;2.88;;;10.10;50.40;;;;;;5055123;28;20161;-50
2021/12/18 00:25:24;;;;;;;2.53;2.05;;;10.10;50.50;;;;;;5054608;28;20165;-50
2021/12/18 00:27:52;;;;;;;2.90;2.30;;;10.00;50.50;;;;;;5055092;28;20506;-49
2021/12/18 00:30:20;;;;;;;5.32;2.00;;;10.10;50.50;;;;;;5054620;28;20157;-49
2021/12/18 00:32:47;;;;;;;2.10;1.48;;;10.10;50.50;;;;;;5054199;28;20175;-49
2021/12/18 00:35:14;;;;;;;5.50;2.67;;;10.00;50.40;;;;;;5055081;28;20161;-49
2021/12/18 00:37:42;;;;;;;4.60;2.17;;;10.10;50.50;;;;;;5037369;28;20192;-49
2021/12/18 00:40:21;;;;;;;2.55;1.60;;;10.10;50.50;;;;;;5054248;28;20225;-49
2021/12/18 00:43:02;;;;;;;4.60;3.28;;;10.10;50.60;;;;;;5055108;28;20202;-49
2021/12/18 00:45:30;;;;;;;2.28;1.35;;;10.00;50.40;;;;;;5038197;28;20187;-51
2021/12/18 00:47:58;;;;;;;2.22;1.40;;;10.00;50.40;;;;;;5035316;28;20531;-49
2021/12/18 00:50:33;;;;;;;2.65;1.90;;;10.00;50.60;;;;;;5018690;28;20603;-49
2021/12/18 00:53:00;;;;;;;3.33;1.80;;;10.00;50.60;;;;;;4986279;28;20177;-49
2021/12/18 00:55:27;;;;;;;5.57;2.47;;;10.00;50.70;;;;;;5017302;28;20177;-50
2021/12/18 00:57:55;;;;;;;4.68;2.80;;;10.00;50.50;;;;;;5034961;28;20165;-49
2021/12/18 01:00:24;;;;;;;2.95;2.20;;;10.00;50.70;;;;;;5034672;28;20539;-49
2021/12/18 01:02:57;;;;;;;6.75;2.92;;;10.00;50.70;;;;;;5034699;28;20173;-49
2021/12/18 01:05:27;;;;;;;7.30;2.60;;;9.90;50.70;;;;;;5017897;28;20235;-49
2021/12/18 01:07:56;;;;;;;4.35;1.98;;;10.00;51.40;;;;;;5034502;28;20173;-49
2021/12/18 01:10:48;;;;;;;5.68;2.15;;;10.00;50.70;;;;;;5034477;28;20181;-49
2021/12/18 01:13:22;;;;;;;3.30;2.40;;;10.00;50.70;;;;;;5019966;28;20172;-49
2021/12/18 01:15:53;;;;;;;4.32;2.95;;;10.00;50.60;;;;;;5022093;28;20185;-49
2021/12/18 01:23:52;;;;;;;2.97;1.70;;;9.90;50.70;;;;;;5010392;28;20238;-49
2021/12/18 01:26:20;;;;;;;13.05;4.10;;;9.90;50.80;;;;;;5021218;28;20170;-49
2021/12/18 01:28:47;;;;;;;4.53;2.33;;;9.90;50.90;;;;;;5005391;28;20208;-49
2021/12/18 01:31:14;;;;;;;2.92;2.40;;;10.00;50.80;;;;;;5038440;28;20188;-49
2021/12/18 01:33:42;;;;;;;7.10;2.78;;;9.90;50.80;;;;;;5021061;28;20245;-49
2021/12/18 01:36:10;;;;;;;3.67;1.70;;;10.00;50.90;;;;;;5038535;28;20500;-50
2021/12/18 01:38:37;;;;;;;4.05;3.20;;;9.90;51.00;;;;;;5021124;28;20165;-50
2021/12/18 01:41:04;;;;;;;4.25;3.30;;;9.90;51.00;;;;;;5038181;28;20177;-50
2021/12/18 01:46:16;;;;;;;3.75;2.50;;;9.90;51.00;;;;;;5038025;28;20732;-50
2021/12/18 01:51:59;;;;;;;3.33;2.33;;;9.90;51.10;;;;;;5023596;28;20601;-49
2021/12/18 01:54:26;;;;;;;5.40;3.38;;;9.90;51.00;;;;;;5038149;28;20177;-50
2021/12/18 01:56:54;;;;;;;3.55;2.05;;;9.90;51.20;;;;;;5004536;28;20166;-49
2021/12/18 01:59:51;;;;;;;3.10;2.25;;;9.90;51.20;;;;;;5037768;28;20216;-49
2021/12/18 02:02:36;;;;;;;2.28;1.75;;;9.90;51.30;;;;;;5008893;28;20506;-49
2021/12/18 02:05:05;;;;;;;3.00;2.47;;;9.80;51.40;;;;;;5037399;28;20552;-49
2021/12/18 02:07:33;;;;;;;3.97;2.72;;;9.80;51.30;;;;;;5004425;28;20600;-49
2021/12/18 02:10:05;;;;;;;7.18;2.63;;;9.90;51.30;;;;;;5037693;28;20174;-49
2021/12/18 02:21:06;;;;;;;4.00;2.42;;;9.90;51.30;;;;;;5037471;28;20220;-49
2021/12/18 02:23:37;;;;;;;4.40;2.42;;;9.90;51.30;;;;;;5020118;28;20173;-49
2021/12/18 02:26:05;;;;;;;6.18;1.88;;;9.80;51.40;;;;;;5020320;28;20244;-49
2021/12/18 02:28:33;;;;;;;3.20;2.67;;;9.90;51.40;;;;;;5020350;28;20170;-49
2021/12/18 02:31:01;;;;;;;3.60;1.80;;;9.80;51.40;;;;;;5004212;28;20166;-49
2021/12/18 02:33:29;;;;;;;4.40;3.25;;;9.90;51.40;;;;;;5019833;28;20504;-49
2021/12/18 02:35:58;;;;;;;10.55;3.05;;;9.90;51.40;;;;;;5037342;28;20166;-49
2021/12/18 02:38:46;;;;;;;4.07;2.58;;;9.90;51.40;;;;;;5037268;28;20308;-49
2021/12/18 02:44:02;;;;;;;4.13;2.95;;;9.90;51.20;;;;;;5022876;28;20200;-49
2021/12/18 02:46:30;;;;;;;3.28;2.30;;;10.00;51.10;;;;;;5033558;28;20209;-49
2021/12/18 02:49:08;;;;;;;5.50;2.63;;;10.00;51.00;;;;;;5072786;28;20256;-49
2021/12/18 02:51:36;;;;;;;5.22;2.95;;;10.00;50.90;;;;;;5056899;28;20621;-49
2021/12/18 02:54:04;;;;;;;7.40;3.13;;;10.00;50.90;;;;;;5055971;28;20590;-49
2021/12/18 02:56:33;;;;;;;3.50;2.25;;;10.10;50.90;;;;;;5056807;28;20248;-49
2021/12/18 02:59:06;;;;;;;1.88;1.65;;;10.10;50.90;;;;;;5056098;28;20189;-49
2021/12/18 03:01:35;;;;;;;4.60;2.13;;;10.10;50.90;;;;;;5055692;28;20223;-49
2021/12/18 03:04:13;;;;;;;5.57;2.20;;;10.10;50.90;;;;;;5056693;28;20263;-49
2021/12/18 03:06:45;;;;;;;3.90;2.20;;;10.10;50.90;;;;;;5040948;28;20169;-49
2021/12/18 03:25:36;;;;;;;3.65;1.90;;;10.10;50.90;;;;;;5056264;28;20168;-49
2021/12/18 03:28:05;;;;;;;5.78;3.33;;;10.00;50.90;;;;;;5055404;28;20174;-49
2021/12/18 03:30:34;;;;;;;2.60;1.80;;;10.00;51.00;;;;;;5055476;28;20176;-49
2021/12/18 03:33:01;;;;;;;4.05;1.90;;;10.00;50.90;;;;;;5056258;28;20172;-49
2021/12/18 03:35:29;;;;;;;3.53;1.75;;;10.00;50.90;;;;;;5054926;28;20490;-49
2021/12/18 03:37:58;;;;;;;2.33;1.50;;;10.10;50.80;;;;;;5055966;28;20184;-49
2021/12/18 03:40:26;;;;;;;2.60;1.65;;;10.00;50.80;;;;;;5055858;28;20197;-49
2021/12/18 03:42:53;;;;;;;4.13;1.92;;;10.00;50.80;;;;;;5056106;28;20170;-49
2021/12/18 03:45:22;;;;;;;7.68;4.55;;;10.00;50.70;;;;;;5055606;28;20582;-49
2021/12/18 03:47:51;;;;;;;3.53;2.13;;;10.00;50.80;;;;;;5036725;28;20217;-49
2021/12/18 03:50:19;;;;;;;3.35;1.88;;;10.00;50.80;;;;;;5018855;28;20170;-49
2021/12/18 03:52:46;;;;;;;4.15;2.20;;;10.00;50.90;;;;;;5018672;28;20158;-49
2021/12/18 03:55:18;;;;;;;1.75;1.40;;;10.00;50.90;;;;;;5035889;28;20240;-49
2021/12/18 03:57:45;;;;;;;4.50;1.55;;;10.10;50.90;;;;;;5002798;28;20216;-49
2021/12/18 04:00:15;;;;;;;3.03;2.13;;;10.00;50.70;;;;;;5018484;28;20193;-49
2021/12/18 04:02:44;;;;;;;2.72;1.98;;;10.10;50.80;;;;;;5018365;28;20201;-49
2021/12/18 04:05:12;;;;;;;5.07;2.30;;;10.10;50.80;;;;;;5002329;28;20170;-49
2021/12/18 04:07:45;;;;;;;3.72;2.60;;;10.10;50.80;;;;;;5018625;28;20169;-49
2021/12/18 04:10:15;;;;;;;5.03;1.98;;;10.10;50.80;;;;;;5019258;28;20182;-49
2021/12/18 04:12:43;;;;;;;5.50;3.65;;;10.10;50.80;;;;;;5018474;28;20166;-49
2021/12/18 04:15:10;;;;;;;3.38;2.95;;;10.10;50.80;;;;;;5035390;28;20170;-49
2021/12/18 04:17:38;;;;;;;4.50;2.67;;;10.10;50.70;;;;;;5018207;28;20180;-49
2021/12/18 04:20:07;;;;;;;5.28;2.72;;;10.10;50.70;;;;;;5017996;28;20271;-49
2021/12/18 04:22:34;;;;;;;3.05;1.67;;;10.10;50.80;;;;;;5018207;28;20605;-49
2021/12/18 04:25:02;;;;;;;2.60;1.92;;;10.10;50.70;;;;;;5035473;28;20174;-49
2021/12/18 04:27:29;;;;;;;3.38;1.85;;;10.10;50.80;;;;;;5017629;28;20162;-49
2021/12/18 04:29:57;;;;;;;2.75;1.50;;;10.10;50.70;;;;;;5018111;28;20205;-49
2021/12/18 04:32:24;;;;;;;4.18;1.70;;;10.10;50.70;;;;;;5035022;28;20170;-49
2021/12/18 04:34:52;;;;;;;4.63;3.42;;;10.10;50.80;;;;;;5017940;28;20485;-49
2021/12/18 04:37:20;;;;;;;4.35;2.08;;;10.10;50.80;;;;;;5017648;28;20480;-49
2021/12/18 04:39:48;;;;;;;6.18;4.03;;;10.10;50.70;;;;;;5017964;28;20205;-49
2021/12/18 04:42:15;;;;;;;3.58;2.60;;;10.10;50.60;;;;;;5017779;28;20173;-49
2021/12/18 04:44:42;;;;;;;2.97;2.67;;;10.10;50.60;;;;;;5035086;28;20618;-49
2021/12/18 04:47:10;;;;;;;3.40;2.22;;;10.10;50.70;;;;;;5041718;28;20235;-49
2021/12/18 04:49:37;;;;;;;5.30;2.90;;;10.10;50.70;;;;;;5054753;28;20166;-49
2021/12/18 04:52:05;;;;;;;3.08;2.00;;;10.10;50.80;;;;;;5054806;28;20269;-49
2021/12/18 04:54:33;;;;;;;5.18;3.13;;;10.10;50.80;;;;;;5053831;28;20248;-49
2021/12/18 04:57:00;;;;;;;2.85;2.00;;;10.10;50.70;;;;;;5037492;28;20195;-49
2021/12/18 04:59:28;;;;;;;2.88;1.77;;;10.10;50.70;;;;;;5053736;28;20227;-49
2021/12/18 05:01:55;;;;;;;4.05;2.47;;;10.10;50.60;;;;;;5053800;28;20613;-49
2021/12/18 05:04:23;;;;;;;2.88;1.90;;;10.10;50.80;;;;;;5054228;28;20181;-49
2021/12/18 05:06:52;;;;;;;7.10;2.67;;;10.10;50.80;;;;;;5053789;28;20591;-49
2021/12/18 05:09:20;;;;;;;4.90;2.00;;;10.20;50.70;;;;;;5053812;28;20177;-49
2021/12/18 05:11:48;;;;;;;6.63;2.30;;;10.20;50.60;;;;;;5054789;28;20175;-49
2021/12/18 05:14:16;;;;;;;3.70;3.03;;;10.20;50.30;;;;;;5054720;28;20515;-49
2021/12/18 05:16:45;;;;;;;4.55;3.05;;;10.20;50.40;;;;;;5053819;28;20195;-49
2021/12/18 05:19:12;;;;;;;7.22;3.65;;;10.20;50.40;;;;;;5053591;28;20189;-49
2021/12/18 05:21:40;;;;;;;1.70;1.08;;;10.20;50.40;;;;;;5054485;28;20173;-49
2021/12/18 05:24:07;;;;;;;4.40;2.00;;;10.20;50.40;;;;;;5054378;28;20183;-49
2021/12/18 05:26:35;;;;;;;2.20;1.35;;;10.20;50.20;;;;;;5053575;28;20172;-49
2021/12/18 05:29:03;;;;;;;6.38;2.88;;;10.20;50.20;;;;;;5053655;28;20161;-49
2021/12/18 05:31:30;;;;;;;2.80;1.45;;;10.20;50.20;;;;;;5037197;28;20186;-49
2021/12/18 05:34:00;;;;;;;3.88;2.30;;;10.20;50.10;;;;;;5053467;28;20547;-49
2021/12/18 05:36:34;;;;;;;3.20;2.00;;;10.20;50.00;;;;;;5053316;28;20174;-49
2021/12/18 05:39:07;;;;;;;5.22;2.10;;;10.20;50.00;;;;;;5054264;28;20279;-49
2021/12/18 05:41:35;;;;;;;3.42;2.42;;;10.20;50.10;;;;;;5053784;28;20157;-49
2021/12/18 05:44:03;;;;;;;4.35;2.03;;;10.20;50.20;;;;;;5054389;28;20538;-49
2021/12/18 05:46:31;;;;;;;3.47;2.05;;;10.20;50.10;;;;;;5053226;28;20618;-49
2021/12/18 05:48:59;;;;;;;3.40;1.02;;;10.20;49.80;;;;;;5053836;28;20168;-49
2021/12/18 05:51:26;;;;;;;1.50;0.90;;;10.10;49.80;;;;;;5054298;28;20196;-49
2021/12/18 05:53:54;;;;;;;3.70;2.33;;;10.10;49.80;;;;;;5054295;28;20170;-49
2021/12/18 05:56:21;;;;;;;1.80;1.58;;;10.10;49.90;;;;;;5054199;28;20168;-49
2021/12/18 05:58:49;;;;;;;1.70;1.27;;;10.10;50.00;;;;;;5054982;28;20609;-49
2021/12/18 06:01:19;;;;;;;1.50;0.77;;;10.10;49.80;;;;;;5056934;28;20606;-49
2021/12/18 06:03:49;;;;;;;1.70;1.42;;;10.10;49.80;;;;;;5057727;28;20267;-49
2021/12/18 06:06:17;;;;;;;4.00;1.30;;;10.10;49.70;;;;;;5058044;28;20259;-49
2021/12/18 06:08:45;;;;;;;1.70;1.08;;;10.10;49.50;;;;;;5056965;28;20254;-49
2021/12/18 06:11:17;;;;;;;4.95;1.98;;;10.10;49.10;;;;;;5056802;28;20162;-49
2021/12/18 06:13:52;;;;;;;2.58;1.27;;;10.10;49.50;;;;;;5025899;28;20177;-49
2021/12/18 06:16:22;;;;;;;2.30;1.20;;;10.10;49.50;;;;;;5058067;28;20161;-49
2021/12/18 06:18:51;;;;;;;2.63;0.75;;;10.10;49.50;;;;;;5056922;28;20232;-49
2021/12/18 06:21:20;;;;;;;1.88;0.90;;;10.10;49.50;;;;;;5056755;28;20233;-49
2021/12/18 06:23:50;;;;;;;6.05;1.77;;;10.20;49.60;;;;;;5057605;28;20166;-49
2021/12/18 06:26:18;;;;;;;1.48;1.08;;;10.20;49.50;;;;;;5057389;28;20240;-49
2021/12/18 06:28:46;;;;;;;2.47;1.38;;;10.20;49.50;;;;;;5056667;28;20161;-49
2021/12/18 06:31:14;;;;;;;1.45;1.15;;;10.20;49.40;;;;;;5056690;28;20211;-49
2021/12/18 06:33:42;;;;;;;2.40;1.85;;;10.20;49.40;;;;;;5057365;28;20172;-49
2021/12/18 06:36:10;;;;;;;2.78;1.35;;;10.20;49.50;;;;;;5057210;28;20176;-49
2021/12/18 06:38:37;;;;;;;3.08;1.40;;;10.20;49.60;;;;;;5057591;28;20285;-49
2021/12/18 06:41:04;;;;;;;3.13;1.63;;;10.10;49.50;;;;;;5056052;28;20197;-49
2021/12/18 06:43:32;;;;;;;2.35;1.38;;;10.20;49.50;;;;;;5057077;28;20680;-49
2021/12/18 06:46:00;;;;;;;2.95;1.70;;;10.10;49.60;;;;;;5052675;28;20683;-49
2021/12/18 06:48:27;;;;;;;2.78;1.30;;;10.20;49.60;;;;;;5019771;28;20606;-50
2021/12/18 06:50:55;;;;;;;2.50;1.02;;;10.10;49.50;;;;;;5037111;28;20174;-49
2021/12/18 06:53:22;;;;;;;1.52;1.15;;;10.20;49.70;;;;;;5036902;28;20166;-49
2021/12/18 06:55:50;;;;;;;2.58;1.23;;;10.20;49.70;;;;;;5036796;28;20170;-49
2021/12/18 06:58:17;;;;;;;3.08;1.38;;;10.20;49.60;;;;;;5037147;28;20488;-49
2021/12/18 07:00:45;;;;;;;4.32;1.83;;;10.10;49.30;;;;;;5036779;28;20200;-49
2021/12/18 07:03:13;;;;;;;1.48;0.90;;;10.10;49.50;;;;;;5019635;28;20161;-49
2021/12/18 07:05:40;;;;;;;2.20;1.40;;;10.10;49.20;;;;;;5036642;28;20496;-49
2021/12/18 07:08:08;;;;;;;2.88;1.30;;;10.10;49.30;;;;;;5019506;28;20172;-49
2021/12/18 07:10:35;;;;;;;1.65;0.80;;;10.00;48.90;;;;;;5018623;28;20166;-49
2021/12/18 07:13:03;;;;;;;4.15;1.10;;;10.00;48.50;;;;;;5036605;28;20181;-49
2021/12/18 07:15:31;;;;;;;1.48;0.73;;;9.90;49.00;;;;;;5036562;28;20590;-49
2021/12/18 07:17:58;;;;;;;1.30;0.60;;;9.90;48.60;;;;;;5036567;28;20260;-49
2021/12/18 07:20:27;;;;;;;1.38;0.60;;;9.70;48.40;;;;;;5036416;28;20188;-49
2021/12/18 07:22:55;;;;;;;1.30;0.65;;;9.70;48.90;;;;;;5036451;28;20177;-49
2021/12/18 07:25:23;;;;;;;2.38;1.23;;;9.70;48.60;;;;;;5019726;28;20175;-49
2021/12/18 07:27:50;;;;;;;2.80;1.67;;;9.70;48.40;;;;;;5036333;28;20223;-49
2021/12/18 07:30:18;;;;;;;2.88;1.67;;;9.80;48.50;;;;;;5036225;28;20228;-49
2021/12/18 07:32:46;;;;;;;1.70;0.82;;;9.80;47.80;;;;;;5036244;28;20288;-49
2021/12/18 07:35:15;;;;;;;2.92;0.98;;;9.80;48.20;;;;;;5003083;28;20253;-49
2021/12/18 07:37:42;;;;;;;2.72;1.55;;;9.80;48.30;;;;;;5036001;28;20183;-49
2021/12/18 07:40:11;;;;;;;1.50;0.65;;;9.80;48.10;;;;;;5036354;28;20539;-49
2021/12/18 07:42:39;;;;;;;1.60;1.13;;;9.90;48.40;;;;;;5018744;28;20469;-49
2021/12/18 07:45:07;;;;;;;1.10;0.50;;;9.80;48.00;;;;;;5002359;28;20549;-49
2021/12/18 07:47:35;;;;;;;2.67;1.75;;;9.80;48.60;;;;;;5049431;28;20235;-49
2021/12/18 07:50:07;;;;;;;1.50;0.80;;;9.80;48.50;;;;;;5054894;28;20168;-49
2021/12/18 07:52:36;;;;;;;1.65;1.05;;;9.80;48.40;;;;;;5054761;28;20605;-50
2021/12/18 07:55:05;;;;;;;3.00;1.08;;;9.80;48.40;;;;;;5055667;28;20185;-49
2021/12/18 07:57:32;;;;;;;1.40;0.70;;;9.80;48.50;;;;;;5054965;28;20223;-49
2021/12/18 08:00:00;;;;;;;1.92;0.85;;;9.80;48.40;;;;;;5038543;28;20224;-49
2021/12/18 08:02:27;;;;;;;1.70;0.55;;;9.90;48.60;;;;;;5054709;28;20157;-49
2021/12/18 08:04:55;;;;;;;3.35;2.22;;;9.90;48.50;;;;;;5055946;28;20625;-49
2021/12/18 08:07:23;;;;;;;4.45;1.27;;;10.00;48.40;;;;;;5054860;28;20585;-49
2021/12/18 08:09:51;;;;;;;3.58;1.05;;;9.90;48.40;;;;;;5055401;28;20165;-49
2021/12/18 08:12:18;;;;;;;2.92;1.60;;;9.90;48.60;;;;;;5055352;28;20225;-49
2021/12/18 08:14:45;;;;;;;1.88;1.35;;;9.90;48.60;;;;;;5055484;28;20618;-49
2021/12/18 08:17:13;;;;;;;2.13;1.38;;;10.00;48.70;;;;;;5055248;28;20162;-49
2021/12/18 08:19:40;;;;;;;4.32;1.95;;;10.00;48.20;;;;;;5054265;28;20213;-49
2021/12/18 08:22:08;;;;;;;1.50;1.00;;;10.00;48.60;;;;;;5054229;28;20299;-49
2021/12/18 08:24:35;;;;;;;1.40;1.15;;;10.10;48.80;;;;;;5054451;28;20248;-49
2021/12/18 08:27:03;;;;;;;2.22;1.27;;;10.00;48.70;;;;;;5054375;28;20180;-49
2021/12/18 08:29:30;;;;;;;2.28;1.70;;;10.10;48.90;;;;;;5055178;28;20162;-49
2021/12/18 08:31:58;;;;;;;3.15;1.45;;;10.10;48.80;;;;;;5055295;28;20176;-49
2021/12/18 08:34:25;;;;;;;5.45;2.63;;;10.20;48.80;;;;;;5054635;28;20177;-49
2021/12/18 08:36:52;;;;;;;6.55;1.52;;;10.20;48.70;;;;;;5054544;28;20161;-49
2021/12/18 08:39:20;;;;;;;3.78;1.73;;;10.20;48.70;;;;;;5037617;28;20211;-50
2021/12/18 08:41:48;;;;;;;1.48;0.93;;;10.20;48.70;;;;;;5054866;28;20173;-49
2021/12/18 08:44:16;;;;;;;2.47;1.75;;;10.20;48.90;;;;;;5055104;28;20188;-49
2021/12/18 08:46:44;;;;;;;2.05;0.98;;;10.30;48.80;;;;;;5053779;28;20243;-50
2021/12/18 08:49:11;;;;;;;1.80;1.13;;;10.30;48.90;;;;;;5054878;28;20161;-49
2021/12/18 08:51:39;;;;;;;2.50;1.55;;;10.30;49.00;;;;;;5054395;28;20157;-49
2021/12/18 08:54:07;;;;;;;2.75;1.58;;;10.40;48.90;;;;;;5037297;28;20197;-49
2021/12/18 08:56:34;;;;;;;1.83;0.80;;;10.30;48.80;;;;;;5054680;28;20166;-49
2021/12/18 08:59:03;;;;;;;3.90;1.55;;;10.30;49.10;;;;;;5053703;28;20165;-49
2021/12/18 09:01:31;;;;;;;2.28;1.65;;;10.30;49.00;;;;;;5053765;28;20240;-49
2021/12/18 09:03:58;;;;;;;1.40;1.05;;;10.40;49.10;;;;;;5054625;28;20173;-49
2021/12/18 09:06:26;;;;;;;4.63;2.00;;;10.30;49.10;;;;;;5053983;28;20211;-49
2021/12/18 09:08:53;;;;;;;9.45;1.95;;;10.30;49.10;;;;;;5037745;28;20186;-49
2021/12/18 09:11:21;;;;;;;2.58;2.38;;;10.30;49.50;;;;;;5054551;28;20557;-49
2021/12/18 09:13:50;;;;;;;2.42;1.40;;;10.40;49.40;;;;;;5053883;28;20189;-49
2021/12/18 09:16:17;;;;;;;2.03;1.20;;;10.40;49.20;;;;;;5054760;28;20200;-49
2021/12/18 09:18:45;;;;;;;1.67;1.40;;;10.40;49.20;;;;;;5055082;28;20578;-49
2021/12/18 09:21:13;;;;;;;3.08;1.50;;;10.40;49.40;;;;;;5054428;28;20264;-49
2021/12/18 09:23:40;;;;;;;1.67;1.40;;;10.40;49.40;;;;;;5054045;28;20173;-49
2021/12/18 09:26:08;;;;;;;1.83;1.25;;;10.40;49.50;;;;;;5054532;28;20157;-49
2021/12/18 09:28:35;;;;;;;3.10;1.10;;;10.50;49.60;;;;;;5053770;28;20192;-49
2021/12/18 09:31:02;;;;;;;1.20;0.50;;;10.50;49.30;;;;;;5053864;28;20510;-49
2021/12/18 09:33:30;;;;;;;1.52;0.75;;;10.50;49.50;;;;;;5054825;28;20479;-49
2021/12/18 09:35:57;;;;;;;1.85;0.95;;;10.50;49.50;;;;;;5058814;28;20173;-49
2021/12/18 09:38:25;;;;;;;1.95;1.40;;;10.50;49.80;;;;;;5041215;28;20302;-49
2021/12/18 09:40:53;;;;;;;3.53;2.40;;;10.40;49.90;;;;;;5040835;28;20649;-49
2021/12/18 09:43:23;;;;;;;1.58;1.27;;;10.40;50.30;;;;;;5057342;28;20184;-49
2021/12/18 09:45:50;;;;;;;4.75;1.55;;;10.40;50.40;;;;;;5055335;28;20307;-49
2021/12/18 09:48:19;;;;;;;5.18;1.98;;;10.40;50.60;;;;;;5021110;28;20188;-49
2021/12/18 09:50:55;;;;;;;2.50;1.98;;;10.50;50.40;;;;;;5020915;28;20162;-49
2021/12/18 09:53:23;;;;;;;3.08;1.45;;;10.60;50.30;;;;;;5038094;28;20501;-49
2021/12/18 09:55:51;;;;;;;1.77;1.27;;;10.60;50.20;;;;;;5038397;28;20467;-49
2021/12/18 09:58:18;;;;;;;4.05;2.03;;;10.70;50.30;;;;;;5020864;28;20308;-49
2021/12/18 10:00:46;;;;;;;1.75;1.38;;;10.70;50.20;;;;;;5020810;28;20209;-49
2021/12/18 10:03:13;;;;;;;1.92;0.82;;;10.60;50.30;;;;;;5038238;28;20168;-49
2021/12/18 10:05:41;;;;;;;4.22;2.00;;;10.50;50.60;;;;;;5020725;28;20300;-48
2021/12/18 10:08:19;;;;;;;3.03;1.92;;;10.50;50.60;;;;;;5038010;28;20550;-49
2021/12/18 10:11:02;;;;;;;1.73;1.00;;;10.50;50.70;;;;;;5020777;28;20165;-48
2021/12/18 10:13:31;;;;;;;1.65;1.15;;;10.50;50.70;;;;;;5038044;28;20170;-49
2021/12/18 10:16:12;;;;;;;4.03;2.10;;;10.50;50.50;;;;;;5020693;28;20174;-49
2021/12/18 10:18:40;;;;;;;4.82;2.80;;;10.70;50.60;;;;;;5020235;28;20185;-49
2021/12/18 10:21:20;;;;;;;2.10;1.33;;;10.60;50.70;;;;;;5020102;28;20276;-48
2021/12/18 10:23:49;;;;;;;2.97;1.65;;;10.50;50.60;;;;;;5037422;28;20319;-49
2021/12/18 10:26:42;;;;;;;2.33;1.38;;;10.40;51.20;;;;;;5020254;28;20245;-49
2021/12/18 10:29:33;;;;;;;3.03;1.40;;;10.50;50.80;;;;;;5037443;28;20170;-48
2021/12/18 10:32:19;;;;;;;4.40;1.58;;;10.50;50.40;;;;;;5037221;28;20172;-49
2021/12/18 10:34:55;;;;;;;3.22;1.85;;;10.50;50.60;;;;;;5037406;28;20161;-48
2021/12/18 10:37:27;;;;;;;2.15;0.98;;;10.50;50.30;;;;;;5020446;28;20169;-48
2021/12/18 10:40:00;;;;;;;2.38;1.77;;;10.40;50.80;;;;;;5037658;28;20623;-48
2021/12/18 10:42:33;;;;;;;2.45;1.65;;;10.50;51.00;;;;;;5019741;28;20166;-49
2021/12/18 10:45:14;;;;;;;4.80;2.03;;;10.40;51.00;;;;;;5036001;28;20158;-48
2021/12/18 10:48:04;;;;;;;3.63;2.60;;;10.50;50.90;;;;;;5036378;28;20554;-49
2021/12/18 10:50:51;;;;;;;2.30;1.48;;;10.60;50.80;;;;;;5055979;28;20181;-49
2021/12/18 10:53:19;;;;;;;2.95;1.65;;;10.50;50.80;;;;;;5039938;28;20177;-48
2021/12/18 10:55:56;;;;;;;3.25;2.45;;;10.50;51.40;;;;;;5057107;28;20257;-49
2021/12/18 10:58:37;;;;;;;4.18;1.75;;;10.50;51.40;;;;;;5056464;28;20200;-48
2021/12/18 11:01:12;;;;;;;2.80;1.65;;;10.40;51.60;;;;;;5055835;28;20252;-49
2021/12/18 11:03:43;;;;;;;3.47;1.65;;;10.40;51.70;;;;;;5055970;28;20149;-49
2021/12/18 11:06:20;;;;;;;4.55;2.40;;;10.50;51.90;;;;;;5039901;28;20170;-49
2021/12/18 11:08:55;;;;;;;4.53;2.72;;;10.60;51.30;;;;;;5055736;28;20176;-48
2021/12/18 11:14:05;;;;;;;2.30;1.77;;;10.70;51.00;;;;;;5056716;28;20179;-48
2021/12/18 11:16:37;;;;;;;4.22;2.45;;;10.80;50.70;;;;;;5056416;28;20168;-49
2021/12/18 11:19:08;;;;;;;2.97;1.25;;;10.70;50.70;;;;;;5055707;28;20188;-49
2021/12/18 11:21:35;;;;;;;1.45;1.00;;;10.60;50.70;;;;;;5056258;28;20157;-48
2021/12/18 11:24:05;;;;;;;4.15;2.13;;;10.60;50.90;;;;;;5055319;28;20180;-49
2021/12/18 11:26:44;;;;;;;3.17;1.42;;;10.60;50.50;;;;;;5056610;28;20188;-49
2021/12/18 11:29:27;;;;;;;2.13;1.55;;;10.60;50.70;;;;;;5055478;28;20229;-49
2021/12/18 11:31:55;;;;;;;2.90;1.00;;;10.70;50.80;;;;;;5039344;28;20160;-49
2021/12/18 11:34:22;;;;;;;1.65;1.35;;;10.60;50.50;;;;;;5038907;28;20637;-49
2021/12/18 11:36:51;;;;;;;3.17;1.30;;;10.70;50.70;;;;;;5055243;28;20234;-49
2021/12/18 11:39:23;;;;;;;3.85;1.55;;;10.80;50.60;;;;;;5056556;28;20475;-49
2021/12/18 11:41:53;;;;;;;2.45;1.75;;;10.90;50.40;;;;;;5039342;28;20248;-48
2021/12/18 11:44:40;;;;;;;2.47;1.75;;;10.80;50.10;;;;;;5056132;28;20162;-49
2021/12/18 11:47:34;;;;;;;2.60;1.67;;;10.80;50.30;;;;;;5054733;28;20209;-49
2021/12/18 11:50:04;;;;;;;3.00;1.58;;;10.80;50.30;;;;;;5056262;28;20585;-49
2021/12/18 11:53:09;;;;;;;2.60;1.38;;;10.90;50.20;;;;;;5056137;28;20590;-48
2021/12/18 11:55:38;;;;;;;1.70;1.38;;;10.90;50.20;;;;;;5054610;28;20606;-49
2021/12/18 11:58:13;;;;;;;5.45;2.20;;;10.90;50.20;;;;;;5055696;28;20189;-49
2021/12/18 12:00:52;;;;;;;3.15;1.30;;;10.90;50.00;;;;;;5038451;28;20212;-48
2021/12/18 12:03:38;;;;;;;2.28;1.40;;;10.90;50.10;;;;;;5039337;28;20598;-48
2021/12/18 12:06:21;;;;;;;3.05;1.20;;;11.00;50.90;;;;;;5038698;28;20165;-49
2021/12/18 12:08:52;;;;;;;3.35;2.50;;;10.90;50.10;;;;;;5055647;28;20252;-49
2021/12/18 12:11:28;;;;;;;101.65;50.90;;;10.80;50.20;;;;;;5038776;28;20244;-48
2021/12/18 12:14:19;;;;;;;3.10;2.80;;;10.80;50.40;;;;;;5055538;28;20271;-48
2021/12/18 12:16:46;;;;;;;1.40;1.17;;;10.80;50.50;;;;;;5054855;28;20256;-49
2021/12/18 12:19:24;;;;;;;1.50;1.30;;;10.80;50.20;;;;;;5055328;28;20547;-49
2021/12/18 12:21:54;;;;;;;2.33;1.63;;;10.80;50.20;;;;;;5055196;28;20173;-48
2021/12/18 12:24:25;;;;;;;1.67;1.08;;;10.60;50.00;;;;;;5038367;28;20166;-48
2021/12/18 12:26:54;;;;;;;1.60;1.02;;;10.60;50.40;;;;;;5054303;28;20150;-49
2021/12/18 12:29:23;;;;;;;2.28;0.90;;;10.60;50.10;;;;;;5054234;28;20602;-49
2021/12/18 12:32:12;;;;;;;3.35;1.63;;;10.70;50.30;;;;;;5054273;28;20176;-49
2021/12/18 12:34:40;;;;;;;1.55;0.98;;;10.70;50.10;;;;;;5038384;28;20184;-49
2021/12/18 12:37:38;;;;;;;2.40;0.85;;;10.70;49.90;;;;;;5055039;28;20587;-49
2021/12/18 12:40:35;;;;;;;2.15;1.00;;;10.70;49.70;;;;;;5054982;28;20197;-49
2021/12/18 12:43:26;;;;;;;1.88;1.25;;;10.50;49.70;;;;;;5050552;28;20199;-49
2021/12/18 12:45:59;;;;;;;1.30;0.80;;;10.40;50.40;;;;;;5051180;28;20555;-49
2021/12/18 12:49:00;;;;;;;1.95;1.25;;;10.40;50.30;;;;;;5001874;28;20180;-49
2021/12/18 12:52:01;;;;;;;2.75;1.05;;;10.40;50.00;;;;;;5017552;28;20173;-49
2021/12/18 12:54:53;;;;;;;2.22;0.90;;;10.50;50.80;;;;;;5034922;28;20218;-49
2021/12/18 12:57:27;;;;;;;2.42;1.40;;;10.70;49.80;;;;;;5035263;28;20249;-49
2021/12/18 13:00:07;;;;;;;3.00;1.25;;;10.60;49.50;;;;;;5017377;28;20283;-49
2021/12/18 13:02:49;;;;;;;3.28;1.30;;;10.60;49.40;;;;;;5034955;28;20519;-49
2021/12/18 13:05:17;;;;;;;2.85;1.63;;;10.40;50.00;;;;;;5001216;28;20208;-49
2021/12/18 13:07:59;;;;;;;1.63;1.10;;;10.50;49.40;;;;;;5002416;28;20162;-49
2021/12/18 13:10:32;;;;;;;2.72;1.65;;;10.60;49.50;;;;;;5007518;28;20169;-49
2021/12/18 13:13:05;;;;;;;1.95;1.17;;;10.70;49.20;;;;;;5024505;28;20166;-49
2021/12/18 13:15:56;;;;;;;1.85;1.05;;;10.60;49.10;;;;;;5024737;28;20201;-49
2021/12/18 13:18:32;;;;;;;3.28;2.08;;;10.60;48.90;;;;;;5041184;28;20177;-49
2021/12/18 13:21:24;;;;;;;1.17;0.50;;;10.40;49.50;;;;;;5024113;28;20204;-49
2021/12/18 13:24:01;;;;;;;1.40;0.88;;;10.30;49.80;;;;;;5040150;28;20263;-49
2021/12/18 13:26:44;;;;;;;1.98;1.60;;;10.40;49.50;;;;;;5024713;28;20189;-49
2021/12/18 13:29:17;;;;;;;2.00;1.30;;;10.40;49.30;;;;;;5024700;28;20494;-49
2021/12/18 13:31:56;;;;;;;4.43;1.42;;;10.40;49.30;;;;;;5008759;28;20166;-49
2021/12/18 13:34:32;;;;;;;1.60;1.00;;;10.40;49.50;;;;;;5025306;28;20173;-49
2021/12/18 13:37:04;;;;;;;2.28;0.95;;;10.20;49.80;;;;;;5040997;28;20674;-49
2021/12/18 13:39:41;;;;;;;1.20;0.70;;;10.00;50.40;;;;;;5023664;28;20252;-49
2021/12/18 13:42:13;;;;;;;1.67;1.20;;;10.10;50.30;;;;;;5041080;28;20260;-49
2021/12/18 13:44:52;;;;;;;1.75;0.75;;;10.10;50.20;;;;;;5041122;28;20172;-49
2021/12/18 13:47:21;;;;;;;1.95;1.02;;;10.10;50.40;;;;;;5040921;28;20539;-49
2021/12/18 13:49:49;;;;;;;1.63;1.05;;;10.20;50.10;;;;;;5023572;28;20178;-49